< Typhoon 201519 2015 Season Typhoon 201521 >
Typhoon 201520 (KROVANH)
General InformationTrack Information on Google MapsDetailed Wind InformationForecast History on Google MapsAccess Analytics MapList of All Images || NewsDisaster Info.WeblogTrackbackTyphoon FrontTwiphoonTyphoon Now!Typhoon ImaginationDisaster Info. XMLResourceGoogle EarthGE AnimationAtom FeedGeoJSON
Detalied Best Track (Time Zone = UTC)
Year Month Day Hour Lat. Long. Pressure (hPa) Wind (kt) Class Image Chart
2015 9 13 18 13.9 151.6 1004 0 2 Image Chart
2015 9 14 00 14.2 151.1 1002 0 2 Image Chart
2015 9 14 06 14.9 150.8 1002 0 2 Image Chart
2015 9 14 12 15.7 150.9 1002 0 2 Image Chart
2015 9 14 18 16.8 150.8 1002 0 2 Image Chart
2015 9 15 00 17.7 150.6 1002 0 2 Image Chart
2015 9 15 06 18.3 150.1 1002 0 2 Image Chart
2015 9 15 12 18.5 149.7 1002 0 2 Image Chart
2015 9 15 18 18.7 149.1 996 35 3 Image Chart
2015 9 16 00 19.2 148.4 990 45 3 Image Chart
2015 9 16 06 19.8 147.3 985 55 4 Image Chart
2015 9 16 12 19.9 146.4 980 60 4 Image Chart
2015 9 16 18 20.3 145.7 970 65 5 Image Chart
2015 9 17 00 21.0 144.8 965 70 5 Image Chart
2015 9 17 06 21.6 144.2 960 75 5 Image Chart
2015 9 17 12 22.2 143.5 945 85 5 Image Chart
2015 9 17 18 22.9 142.9 945 85 5 Image Chart
2015 9 18 00 23.7 142.5 945 85 5 Image Chart
2015 9 18 06 24.6 142.3 950 80 5 Image Chart
2015 9 18 09 25.1 142.3 950 80 5 Image Chart
2015 9 18 12 25.5 142.4 950 80 5 Image Chart
2015 9 18 15 25.9 142.3 950 80 5 Image Chart
2015 9 18 18 26.7 142.8 955 75 5 Image Chart
2015 9 18 21 27.3 143.1 960 70 5 Image Chart
2015 9 19 00 27.9 143.3 965 70 5 Image Chart
2015 9 19 03 28.3 143.6 965 70 5 Image Chart
2015 9 19 06 28.9 144.2 965 70 5 Image Chart
2015 9 19 12 30.0 145.2 970 65 5 Image Chart
2015 9 19 18 31.0 146.1 975 60 4 Image Chart
2015 9 20 00 31.9 147.1 985 50 4 Image Chart
2015 9 20 06 32.9 148.1 990 45 3 Image Chart
2015 9 20 12 33.9 149.1 992 40 3 Image Chart
2015 9 20 18 35.1 150.6 992 40 3 Image Chart
2015 9 21 00 36.1 151.4 992 45 3 Image Chart
2015 9 21 06 36.5 151.9 992 40 3 Image Chart
2015 9 21 12 37.0 152.2 992 0 6 Image Chart
2015 9 21 18 37.8 152.5 992 0 6 Image Chart
2015 9 22 00 39.1 153.2 992 0 6 Image Chart
2015 9 22 06 40.5 153.9 990 0 6 Image Chart
2015 9 22 12 42.3 155.1 988 0 6 Image Chart
2015 9 22 18 43.0 155.0 988 0 6 Image Chart
2015 9 23 00 42.6 154.4 992 0 6 Image Chart
2015 9 23 06 41.4 154.7 992 0 6 Image Chart
2015 9 23 12 40.3 155.8 992 0 6 Image Chart
2015 9 23 18 39.6 157.2 992 0 6 Image Chart
2015 9 24 00 39.4 158.8 992 0 6 Image Chart
2015 9 24 06 39.6 160.8 992 0 6 Image Chart
2015 9 24 12 39.9 162.3 992 0 6 Image Chart
2015 9 24 18 40.9 164.2 992 0 6 Image Chart
2015 9 25 00 41.7 165.4 994 0 6 Image Chart
2015 9 25 06 42.4 166.8 994 0 6 Image Chart
2015 9 25 12 43.0 168.1 994 0 6 Image Chart
2015 9 25 18 43.4 169.6 994 0 6 Image Chart
2015 9 26 00 43.7 171.3 996 0 6 Image Chart
2015 9 26 06 44.4 174.0 996 0 6 Image Chart
Japan Meteorological Agency Best Track Data | Correction Date : 2015-11-01
< Typhoon 201519 2015 Season Typhoon 201521 >

Help